Midway City, California
Current Conditions -  °F | °C
As of 9:58 AM on Friday 31 Oct 2014 (Local Time) from KSLI Reporting Station
Broken Clouds Broken Clouds  
Wind Chill: 68°   Ceiling: 4400
Heat Index: 68°   Visibility: 7mi
Dew Point: 59°   Wind: 2mph
Humidity: 71%   Direction: NA
Pressure: 29.98"   Gusts: NA
Location:  33.74°N, 117.99°W
Report Text: KSLI 311658Z VRB02KT 7SM BKN044 20/15 A2998 RMK AO2A SLP155 T02020148
Loading
Personal Weather Stations






























Interactive Weather Map
Tropical Storm Tracking
New forecast layout! Learn more

10-Day Weather Forecast

Advertisements
Track Severe Weather on mobile